Time;durP1;ratioP1;P1;durP2;ratioP2;P2;SDS_P1;SDS_P2;PMS_P1;PMS_P2;Temp;Humidity;BMP_temperature;BMP_pressure;BME280_temperature;BME280_humidity;BME280_pressure;Samples;Min_cycle;Max_cycle;Signal;HPM_P1;HPM_P2
2021/12/27 00:00:24;;;;;;;0.40;0.40;;;-7.30;99.90;;;;;;5102644;28;20423;-70
2021/12/27 00:03:11;;;;;;;0.40;0.40;;;-7.30;99.90;;;;;;5085547;28;20491;-73
2021/12/27 00:05:58;;;;;;;0.40;0.40;;;-7.40;99.90;;;;;;5077252;28;20843;-71
2021/12/27 00:08:45;;;;;;;0.50;0.50;;;-7.40;99.90;;;;;;5075117;28;20505;-73
2021/12/27 00:11:32;;;;;;;0.40;0.40;;;-7.40;99.90;;;;;;5077427;28;20455;-79
2021/12/27 00:14:21;;;;;;;0.40;0.40;;;-7.50;99.90;;;;;;5075897;28;20427;-75
2021/12/27 00:17:08;;;;;;;0.40;0.40;;;-7.50;99.90;;;;;;5076473;28;20427;-72
2021/12/27 00:19:55;;;;;;;0.40;0.40;;;-7.50;99.90;;;;;;5075625;28;20490;-73
2021/12/27 00:22:43;;;;;;;3.13;3.03;;;-7.40;99.90;;;;;;5076292;28;20428;-78
2021/12/27 00:25:30;;;;;;;0.50;0.50;;;-7.40;99.90;;;;;;5076379;28;20428;-73
2021/12/27 00:28:18;;;;;;;0.40;0.40;;;-7.40;99.90;;;;;;5076085;28;20434;-75
2021/12/27 00:31:06;;;;;;;0.40;0.40;;;-7.40;99.90;;;;;;5076840;28;20828;-78
2021/12/27 00:33:53;;;;;;;0.40;0.40;;;-7.40;99.90;;;;;;5077373;28;20428;-77
2021/12/27 00:36:41;;;;;;;0.40;0.40;;;-7.40;99.90;;;;;;5076095;28;20451;-74
2021/12/27 00:39:27;;;;;;;0.90;0.90;;;-7.40;99.90;;;;;;5074244;28;20420;-71
2021/12/27 00:42:15;;;;;;;0.40;0.40;;;-7.40;99.90;;;;;;5075973;28;20504;-73
2021/12/27 00:45:02;;;;;;;0.40;0.40;;;-7.40;99.90;;;;;;5074325;28;20427;-73
2021/12/27 00:47:50;;;;;;;0.40;0.40;;;-7.40;99.90;;;;;;5074919;28;20428;-75
2021/12/27 00:50:37;;;;;;;0.50;0.50;;;-7.30;99.90;;;;;;5075602;28;20444;-74
2021/12/27 00:53:24;;;;;;;0.40;0.40;;;-7.30;99.90;;;;;;5075517;28;20524;-71
2021/12/27 00:56:11;;;;;;;0.40;0.40;;;-7.20;99.90;;;;;;5075948;28;20432;-75
2021/12/27 00:58:58;;;;;;;0.50;0.50;;;-7.10;99.90;;;;;;5076315;28;20439;-71
2021/12/27 01:01:45;;;;;;;0.40;0.40;;;-6.90;99.90;;;;;;5087813;28;20830;-72
2021/12/27 01:04:34;;;;;;;0.40;0.40;;;-6.80;99.90;;;;;;5095091;28;20516;-70
2021/12/27 01:07:21;;;;;;;0.60;0.60;;;-6.70;99.90;;;;;;5096045;28;20420;-73
2021/12/27 01:10:26;;;;;;;0.40;0.40;;;-6.60;99.90;;;;;;5096308;28;20515;-70
2021/12/27 01:13:24;;;;;;;0.40;0.40;;;-6.50;99.90;;;;;;5100530;28;20455;-70
2021/12/27 01:16:13;;;;;;;0.50;0.50;;;-6.40;99.90;;;;;;5103916;28;21070;-70
2021/12/27 01:19:00;;;;;;;0.40;0.40;;;-6.30;99.90;;;;;;5109682;28;20419;-71
2021/12/27 01:21:48;;;;;;;0.40;0.40;;;-6.20;99.90;;;;;;5110925;28;20916;-70
2021/12/27 01:24:35;;;;;;;0.40;0.40;;;-6.20;99.90;;;;;;5112348;28;20459;-70
2021/12/27 01:27:22;;;;;;;0.40;0.40;;;-6.10;99.90;;;;;;5103502;28;20483;-70
2021/12/27 01:30:15;;;;;;;0.50;0.50;;;-6.10;99.90;;;;;;5095604;28;20478;-71
2021/12/27 01:33:02;;;;;;;0.60;0.60;;;-6.00;99.90;;;;;;5095080;28;20471;-71
2021/12/27 01:35:49;;;;;;;0.87;0.87;;;-5.80;99.90;;;;;;5094869;28;20504;-72
2021/12/27 01:38:39;;;;;;;0.40;0.40;;;-6.00;99.90;;;;;;5095711;28;20431;-71
2021/12/27 01:41:26;;;;;;;0.40;0.40;;;-6.00;99.90;;;;;;5094888;28;20439;-72
2021/12/27 01:44:13;;;;;;;0.50;0.50;;;-6.00;99.90;;;;;;5096279;28;20423;-73
2021/12/27 01:47:00;;;;;;;0.60;0.60;;;-6.00;99.90;;;;;;5094701;28;20426;-73
2021/12/27 01:49:47;;;;;;;0.40;0.40;;;-5.90;99.90;;;;;;5094427;28;20426;-74
2021/12/27 01:52:34;;;;;;;1.47;1.37;;;-6.10;99.90;;;;;;5095142;28;20507;-71
2021/12/27 01:55:22;;;;;;;0.40;0.40;;;-6.20;99.90;;;;;;5104247;28;20435;-71
2021/12/27 01:58:10;;;;;;;0.40;0.40;;;-6.20;99.90;;;;;;5108423;28;20461;-71
2021/12/27 02:00:58;;;;;;;1.07;1.07;;;-6.10;99.90;;;;;;5100208;28;20467;-71
2021/12/27 02:03:49;;;;;;;0.40;0.40;;;-5.90;99.90;;;;;;5075478;28;20920;-72
2021/12/27 02:06:36;;;;;;;0.40;0.40;;;-6.00;99.90;;;;;;5074338;28;20783;-73
2021/12/27 02:09:30;;;;;;;0.70;0.70;;;-5.90;99.90;;;;;;5058091;28;20858;-70
2021/12/27 02:12:19;;;;;;;0.40;0.40;;;-5.90;99.90;;;;;;5054496;28;20464;-73
2021/12/27 02:15:09;;;;;;;0.70;0.70;;;-5.90;99.90;;;;;;5065871;28;20415;-74
2021/12/27 02:17:56;;;;;;;0.40;0.40;;;-5.80;99.90;;;;;;5053285;28;20413;-73
2021/12/27 02:20:45;;;;;;;0.60;0.60;;;-5.80;99.90;;;;;;5052556;28;20979;-71
2021/12/27 02:23:34;;;;;;;0.40;0.40;;;-5.70;99.90;;;;;;5072850;28;20417;-71
2021/12/27 02:26:21;;;;;;;2.63;2.53;;;-5.70;99.90;;;;;;5073209;28;20417;-71
2021/12/27 02:29:09;;;;;;;0.90;0.90;;;-5.60;99.90;;;;;;5072974;28;20447;-70
2021/12/27 02:31:56;;;;;;;0.40;0.40;;;-5.60;99.90;;;;;;5070095;28;20475;-71
2021/12/27 02:34:43;;;;;;;0.40;0.40;;;-5.60;99.90;;;;;;5057816;28;20491;-74
2021/12/27 02:37:31;;;;;;;0.40;0.40;;;-5.50;99.90;;;;;;5056619;28;20421;-72
2021/12/27 02:40:19;;;;;;;0.40;0.40;;;-5.50;99.90;;;;;;5054524;28;20929;-71
2021/12/27 02:43:08;;;;;;;0.40;0.40;;;-5.50;99.90;;;;;;5054285;28;20428;-71
2021/12/27 02:45:57;;;;;;;0.47;0.47;;;-5.50;99.90;;;;;;5053632;28;20428;-71
2021/12/27 02:48:47;;;;;;;0.50;0.50;;;-5.40;99.90;;;;;;5053794;28;20448;-71
2021/12/27 02:51:33;;;;;;;0.40;0.40;;;-5.50;99.90;;;;;;5053253;28;20456;-71
2021/12/27 02:54:22;;;;;;;2.67;2.57;;;-5.50;99.90;;;;;;5053399;28;20496;-71
2021/12/27 02:57:10;;;;;;;0.40;0.40;;;-5.50;99.90;;;;;;5053634;28;20425;-71
2021/12/27 02:59:57;;;;;;;0.40;0.40;;;-5.40;99.90;;;;;;5053293;28;20432;-70
2021/12/27 03:02:46;;;;;;;1.90;1.90;;;-5.40;99.90;;;;;;5098281;23;20683;-68
2021/12/27 03:05:34;;;;;;;0.40;0.40;;;-5.40;99.90;;;;;;5092676;28;20419;-68
2021/12/27 03:08:23;;;;;;;0.40;0.40;;;-4.30;99.90;;;;;;5092382;28;20428;-68
2021/12/27 03:11:11;;;;;;;0.40;0.40;;;-5.30;99.90;;;;;;5092256;28;20439;-68
2021/12/27 03:13:58;;;;;;;1.23;1.23;;;-5.30;99.90;;;;;;5091939;28;20470;-68
2021/12/27 03:16:45;;;;;;;0.43;0.43;;;-5.10;99.90;;;;;;5092166;28;20427;-68
2021/12/27 03:19:32;;;;;;;1.83;1.73;;;-5.20;99.90;;;;;;5091395;28;20423;-68
2021/12/27 03:22:19;;;;;;;0.50;0.50;;;-5.20;99.90;;;;;;5092036;28;20446;-68
2021/12/27 03:25:07;;;;;;;1.03;1.03;;;-5.20;99.90;;;;;;5091774;28;20418;-68
2021/12/27 03:27:56;;;;;;;0.40;0.40;;;-5.10;99.90;;;;;;5092462;28;20431;-67
2021/12/27 03:30:43;;;;;;;0.97;0.97;;;-5.10;99.90;;;;;;5092128;28;20465;-68
2021/12/27 03:33:30;;;;;;;0.93;0.93;;;-5.10;99.90;;;;;;5091674;28;20462;-68
2021/12/27 03:36:23;;;;;;;0.50;0.50;;;-5.10;99.90;;;;;;5092401;28;20426;-68
2021/12/27 03:39:11;;;;;;;1.50;1.50;;;-5.10;99.90;;;;;;5095667;28;20837;-69
2021/12/27 03:41:58;;;;;;;0.50;0.50;;;-5.00;99.90;;;;;;5095874;28;20450;-67
2021/12/27 03:44:46;;;;;;;0.70;0.70;;;-5.00;99.90;;;;;;5095708;28;20899;-67
2021/12/27 03:47:33;;;;;;;0.40;0.40;;;-5.00;99.90;;;;;;5095709;28;20419;-68
2021/12/27 03:50:21;;;;;;;2.43;2.30;;;-4.90;99.90;;;;;;5095732;28;20422;-69
2021/12/27 03:53:08;;;;;;;0.53;0.53;;;-5.00;99.90;;;;;;5114237;28;20797;-69
2021/12/27 03:55:55;;;;;;;1.43;1.43;;;-5.00;99.90;;;;;;5115349;28;20441;-69
2021/12/27 03:58:54;;;;;;;0.50;0.50;;;-5.00;99.90;;;;;;5114936;28;20419;-68
2021/12/27 04:01:42;;;;;;;0.40;0.40;;;-5.00;99.90;;;;;;5110531;28;20460;-71
2021/12/27 04:04:29;;;;;;;1.20;1.10;;;-4.90;99.90;;;;;;5103537;28;20500;-68
2021/12/27 04:07:18;;;;;;;2.67;2.50;;;-5.00;99.90;;;;;;5096296;28;20535;-68
2021/12/27 04:10:06;;;;;;;0.50;0.50;;;-4.90;99.90;;;;;;5095725;28;20496;-69
2021/12/27 04:12:53;;;;;;;6.73;1.43;;;-4.90;99.90;;;;;;5096013;28;20874;-67
2021/12/27 04:15:40;;;;;;;1.03;1.03;;;-4.90;99.90;;;;;;5095580;28;20434;-68
2021/12/27 04:18:29;;;;;;;0.40;0.40;;;-4.90;99.90;;;;;;5095940;28;20423;-68
2021/12/27 04:21:16;;;;;;;0.40;0.40;;;-4.80;99.90;;;;;;5095429;28;20788;-69
2021/12/27 04:24:03;;;;;;;0.50;0.50;;;-4.80;99.90;;;;;;5075259;28;20424;-68
2021/12/27 04:26:50;;;;;;;0.40;0.40;;;-4.80;99.90;;;;;;5075454;28;20492;-67
2021/12/27 04:29:37;;;;;;;2.30;1.10;;;-4.70;99.90;;;;;;5074262;28;20423;-68
2021/12/27 04:32:23;;;;;;;0.50;0.50;;;-4.70;99.90;;;;;;5074961;28;20448;-68
2021/12/27 04:35:12;;;;;;;2.90;2.80;;;-4.60;99.90;;;;;;5074739;28;20419;-68
2021/12/27 04:38:00;;;;;;;0.40;0.40;;;-4.50;99.90;;;;;;5077042;28;20424;-68
2021/12/27 04:40:50;;;;;;;1.37;1.37;;;-4.50;99.90;;;;;;5088150;28;20436;-68
2021/12/27 04:43:38;;;;;;;0.50;0.50;;;-4.50;99.90;;;;;;5091557;28;20424;-68
2021/12/27 04:46:24;;;;;;;0.40;0.40;;;-4.40;99.90;;;;;;5091940;28;20442;-69
2021/12/27 04:49:11;;;;;;;0.50;0.50;;;-4.40;99.90;;;;;;5090117;28;20424;-68
2021/12/27 04:52:00;;;;;;;1.27;1.27;;;-4.30;99.90;;;;;;5091364;28;20443;-69
2021/12/27 04:54:47;;;;;;;0.73;0.73;;;-4.30;99.90;;;;;;5092065;28;20516;-71
2021/12/27 04:57:33;;;;;;;0.57;0.57;;;-4.30;99.90;;;;;;5092449;28;21018;-69
2021/12/27 05:00:21;;;;;;;1.30;1.30;;;-4.30;99.90;;;;;;5092085;28;20420;-69
2021/12/27 05:03:08;;;;;;;0.50;0.50;;;-4.30;99.90;;;;;;5093142;28;20424;-69
2021/12/27 05:05:55;;;;;;;3.83;3.63;;;-4.30;99.90;;;;;;5093058;28;20428;-69
2021/12/27 05:08:43;;;;;;;0.97;0.97;;;-4.20;99.90;;;;;;5093651;28;20450;-68
2021/12/27 05:11:31;;;;;;;0.50;0.50;;;-4.10;99.90;;;;;;5093400;28;20443;-70
2021/12/27 05:14:18;;;;;;;0.80;0.80;;;-4.10;99.90;;;;;;5094233;28;20443;-68
2021/12/27 05:17:05;;;;;;;0.50;0.50;;;-4.00;99.90;;;;;;5093268;28;20420;-68
2021/12/27 05:19:52;;;;;;;1.17;1.07;;;-3.90;99.90;;;;;;5091673;28;20424;-67
2021/12/27 05:22:40;;;;;;;0.40;0.40;;;-4.00;99.90;;;;;;5074563;28;20448;-68
2021/12/27 05:25:28;;;;;;;3.90;2.10;;;-4.00;99.90;;;;;;5073698;28;20427;-68
2021/12/27 05:28:15;;;;;;;2.20;2.10;;;-4.10;99.90;;;;;;5073783;28;20432;-67
2021/12/27 05:31:02;;;;;;;0.40;0.40;;;-4.00;99.90;;;;;;5073775;28;20454;-67
2021/12/27 05:33:49;;;;;;;1.13;1.13;;;-4.00;99.90;;;;;;5074006;28;20497;-68
2021/12/27 05:36:36;;;;;;;0.40;0.40;;;-3.90;99.90;;;;;;5073802;28;20420;-68
2021/12/27 05:39:24;;;;;;;0.50;0.50;;;-3.90;99.90;;;;;;5073648;28;20428;-69
2021/12/27 05:42:12;;;;;;;0.40;0.40;;;-3.80;99.90;;;;;;5073497;28;20455;-68
2021/12/27 05:44:59;;;;;;;0.50;0.50;;;-3.80;99.90;;;;;;5073822;28;20420;-68
2021/12/27 05:47:47;;;;;;;0.47;0.47;;;-3.80;99.90;;;;;;5074828;28;20916;-69
2021/12/27 05:50:34;;;;;;;1.80;1.80;;;-3.70;99.90;;;;;;5073411;28;20824;-68
2021/12/27 05:53:21;;;;;;;2.10;2.00;;;-3.60;99.90;;;;;;5074100;28;20456;-69
2021/12/27 05:56:08;;;;;;;0.50;0.50;;;-3.50;99.90;;;;;;5073349;28;20443;-68
2021/12/27 05:58:56;;;;;;;2.80;2.70;;;-3.60;99.90;;;;;;5073216;28;20477;-68
2021/12/27 06:01:44;;;;;;;1.07;1.00;;;-3.70;99.90;;;;;;5085414;28;20504;-68
2021/12/27 06:04:30;;;;;;;0.40;0.40;;;-3.60;99.90;;;;;;5093824;28;20423;-68
2021/12/27 06:07:18;;;;;;;0.57;0.57;;;-3.60;99.90;;;;;;5094178;28;20434;-68
2021/12/27 06:10:06;;;;;;;0.40;0.40;;;-3.60;99.90;;;;;;5093857;28;20418;-69
2021/12/27 06:12:53;;;;;;;0.40;0.40;;;-3.50;99.90;;;;;;5092921;28;20450;-68
2021/12/27 06:15:42;;;;;;;0.40;0.40;;;-3.40;99.90;;;;;;5093651;28;20496;-68
2021/12/27 06:18:29;;;;;;;0.50;0.50;;;-3.40;99.90;;;;;;5094009;28;20434;-68
2021/12/27 06:21:16;;;;;;;0.80;0.80;;;-3.40;99.90;;;;;;5093440;28;20502;-68
2021/12/27 06:24:04;;;;;;;0.50;0.50;;;-3.40;99.90;;;;;;5094154;28;20422;-69
2021/12/27 06:26:51;;;;;;;0.50;0.50;;;-3.30;99.90;;;;;;5092292;28;20423;-69
2021/12/27 06:29:38;;;;;;;4.87;3.10;;;-3.30;99.90;;;;;;5093281;28;20805;-68
2021/12/27 06:32:26;;;;;;;1.87;1.77;;;-3.30;99.90;;;;;;5092960;28;20981;-68
2021/12/27 06:35:16;;;;;;;0.70;0.70;;;-3.40;99.90;;;;;;5093961;28;20831;-69
2021/12/27 06:38:03;;;;;;;0.40;0.40;;;-3.40;99.90;;;;;;5109484;28;20422;-68
2021/12/27 06:40:50;;;;;;;1.47;1.47;;;-3.20;99.90;;;;;;5108638;28;20941;-67
2021/12/27 06:43:37;;;;;;;0.40;0.40;;;-3.30;99.90;;;;;;5103169;28;20449;-68
2021/12/27 06:46:24;;;;;;;2.30;2.20;;;-3.20;99.90;;;;;;5103199;28;20509;-68
2021/12/27 06:49:12;;;;;;;3.03;2.93;;;-3.20;99.90;;;;;;5103150;28;20431;-68
2021/12/27 06:51:59;;;;;;;0.80;0.80;;;-3.00;99.90;;;;;;5096293;28;20500;-68
2021/12/27 06:54:46;;;;;;;0.77;0.77;;;-3.10;99.90;;;;;;5094969;28;20512;-69
2021/12/27 06:57:33;;;;;;;0.40;0.40;;;-3.10;99.90;;;;;;5095891;28;20817;-68
2021/12/27 07:00:20;;;;;;;0.50;0.50;;;-3.10;99.90;;;;;;5101574;28;20987;-69
2021/12/27 07:03:07;;;;;;;0.50;0.50;;;-3.00;99.90;;;;;;5095308;28;20450;-69
2021/12/27 07:05:56;;;;;;;1.60;1.23;;;-3.10;99.90;;;;;;5105839;28;20423;-71
2021/12/27 07:08:47;;;;;;;0.70;0.70;;;-3.10;99.90;;;;;;5103963;28;20438;-69
2021/12/27 07:11:34;;;;;;;0.77;0.77;;;-3.10;99.90;;;;;;5098870;28;20466;-68
2021/12/27 07:14:21;;;;;;;0.50;0.50;;;-3.00;99.90;;;;;;5100000;28;20454;-69
2021/12/27 07:17:08;;;;;;;0.50;0.50;;;-3.00;99.90;;;;;;5102426;28;20435;-69
2021/12/27 07:19:55;;;;;;;0.50;0.50;;;-2.90;99.90;;;;;;5100979;28;20434;-68
2021/12/27 07:22:43;;;;;;;1.77;1.67;;;-2.90;99.90;;;;;;5106397;28;20454;-70
2021/12/27 07:25:30;;;;;;;1.57;1.57;;;-3.00;99.90;;;;;;5096584;28;20526;-69
2021/12/27 07:28:17;;;;;;;4.27;2.50;;;-3.00;99.90;;;;;;5093219;28;20472;-70
2021/12/27 07:31:04;;;;;;;0.80;0.80;;;-3.00;99.90;;;;;;5092859;28;20451;-69
2021/12/27 07:33:52;;;;;;;1.17;1.17;;;-2.90;99.90;;;;;;5101047;28;20463;-70
2021/12/27 07:36:39;;;;;;;0.50;0.50;;;-2.90;99.90;;;;;;5096803;28;20438;-68
2021/12/27 07:39:28;;;;;;;0.50;0.50;;;-2.70;99.90;;;;;;5099806;28;20427;-70
2021/12/27 07:42:15;;;;;;;0.50;0.50;;;-2.80;99.90;;;;;;5096867;28;20443;-69
2021/12/27 07:45:03;;;;;;;0.40;0.40;;;-2.60;99.90;;;;;;5095996;28;20423;-69
2021/12/27 07:47:49;;;;;;;0.40;0.40;;;-2.70;99.90;;;;;;5095483;28;20476;-69
2021/12/27 07:50:37;;;;;;;0.80;0.80;;;-2.70;99.90;;;;;;5096291;28;20419;-69
2021/12/27 07:53:24;;;;;;;0.40;0.40;;;-2.60;99.90;;;;;;5094655;28;20423;-69
2021/12/27 07:56:13;;;;;;;3.30;1.73;;;-2.60;99.90;;;;;;5098203;28;20422;-69
2021/12/27 07:59:03;;;;;;;3.37;3.13;;;-2.60;99.90;;;;;;5096565;28;20804;-68
2021/12/27 08:01:50;;;;;;;0.60;0.60;;;-2.50;99.90;;;;;;5081067;28;20451;-69
2021/12/27 08:04:37;;;;;;;0.50;0.50;;;-2.50;99.90;;;;;;5072611;28;20423;-69
2021/12/27 08:07:24;;;;;;;0.40;0.40;;;-2.60;99.90;;;;;;5071673;28;20420;-70
2021/12/27 08:10:13;;;;;;;1.47;1.47;;;-2.50;99.90;;;;;;5071846;28;20500;-68
2021/12/27 08:13:02;;;;;;;1.57;1.47;;;-2.40;99.90;;;;;;5072317;28;20436;-68
2021/12/27 08:15:49;;;;;;;0.50;0.50;;;-2.40;99.90;;;;;;5072997;28;20455;-69
2021/12/27 08:18:36;;;;;;;0.50;0.50;;;-2.40;99.90;;;;;;5072366;28;20423;-68
2021/12/27 08:21:24;;;;;;;0.50;0.50;;;-2.20;99.90;;;;;;5072983;28;20447;-68
2021/12/27 08:24:11;;;;;;;0.50;0.50;;;-2.20;99.90;;;;;;5074439;28;20427;-69
2021/12/27 08:27:02;;;;;;;0.80;0.80;;;-2.20;99.90;;;;;;5076252;28;20427;-68
2021/12/27 08:29:50;;;;;;;1.53;1.53;;;-2.20;99.90;;;;;;5076079;28;20438;-68
2021/12/27 08:32:39;;;;;;;0.50;0.50;;;-2.10;99.90;;;;;;5074831;28;20436;-69
2021/12/27 08:35:27;;;;;;;0.60;0.60;;;-2.00;99.90;;;;;;5074887;28;20463;-69
2021/12/27 08:38:16;;;;;;;0.50;0.50;;;-1.90;99.90;;;;;;5074887;28;20952;-69
2021/12/27 08:41:03;;;;;;;0.50;0.50;;;-1.90;99.90;;;;;;5077972;28;20484;-68
2021/12/27 08:43:50;;;;;;;1.00;1.00;;;-1.80;99.90;;;;;;5077881;28;20423;-70
2021/12/27 08:46:40;;;;;;;1.27;1.20;;;-1.80;99.90;;;;;;5077209;28;20481;-69
2021/12/27 08:49:27;;;;;;;1.73;1.63;;;-1.60;99.90;;;;;;5075896;28;20514;-69
2021/12/27 08:52:14;;;;;;;0.40;0.40;;;-1.60;99.90;;;;;;5077536;28;20858;-68
2021/12/27 08:55:02;;;;;;;0.40;0.40;;;-1.60;99.90;;;;;;5074546;28;20463;-69
2021/12/27 08:57:49;;;;;;;2.03;1.90;;;-1.50;99.90;;;;;;5075697;28;20432;-69
2021/12/27 09:00:36;;;;;;;1.20;1.20;;;-1.40;99.90;;;;;;5077158;28;20423;-70
2021/12/27 09:03:25;;;;;;;0.70;0.70;;;-1.30;99.90;;;;;;5095545;28;20942;-68
2021/12/27 09:06:12;;;;;;;0.70;0.70;;;-1.30;99.90;;;;;;5095501;28;20476;-67
2021/12/27 09:08:59;;;;;;;0.90;0.90;;;-1.30;99.90;;;;;;5094848;28;20423;-68
2021/12/27 09:11:46;;;;;;;0.73;0.73;;;-1.40;99.90;;;;;;5095548;28;21051;-68
2021/12/27 09:14:33;;;;;;;0.50;0.50;;;-1.40;99.90;;;;;;5094950;28;20879;-69
2021/12/27 09:17:20;;;;;;;0.50;0.50;;;-1.50;99.90;;;;;;5095001;28;20484;-69
2021/12/27 09:20:09;;;;;;;1.00;0.90;;;-1.50;99.90;;;;;;5096040;28;21153;-68
2021/12/27 09:22:56;;;;;;;0.40;0.40;;;-1.40;99.90;;;;;;5093674;28;20443;-68
2021/12/27 09:25:44;;;;;;;2.50;2.40;;;-1.30;99.90;;;;;;5094732;28;20411;-72
2021/12/27 09:28:32;;;;;;;0.53;0.53;;;-1.30;99.90;;;;;;5094797;28;20442;-69
2021/12/27 09:31:19;;;;;;;0.60;0.60;;;-1.20;99.90;;;;;;5094186;28;20439;-68
2021/12/27 09:34:06;;;;;;;1.67;1.57;;;-1.20;99.90;;;;;;5094387;28;20419;-69
2021/12/27 09:36:54;;;;;;;0.70;0.70;;;-1.00;99.90;;;;;;5094748;28;20426;-69
2021/12/27 09:39:41;;;;;;;0.43;0.43;;;-1.10;99.90;;;;;;5094361;28;20423;-69
2021/12/27 09:42:28;;;;;;;2.93;1.37;;;-1.00;99.90;;;;;;5094248;28;20833;-69
2021/12/27 09:45:15;;;;;;;0.40;0.40;;;-1.00;99.90;;;;;;5095155;28;20415;-68
2021/12/27 09:48:02;;;;;;;3.27;1.67;;;-0.90;99.90;;;;;;5095734;28;20960;-70
2021/12/27 09:50:52;;;;;;;1.87;1.80;;;-0.70;99.90;;;;;;5094488;28;20426;-68
2021/12/27 09:53:40;;;;;;;19.00;10.80;;;-0.60;99.90;;;;;;5094528;28;20459;-68
2021/12/27 09:56:28;;;;;;;1.83;1.73;;;-0.40;99.90;;;;;;5093732;28;20966;-68
2021/12/27 09:59:15;;;;;;;5.40;3.30;;;-0.40;99.90;;;;;;5094207;28;20427;-69
2021/12/27 10:02:01;;;;;;;0.50;0.50;;;-0.40;99.90;;;;;;5079904;28;20460;-69
2021/12/27 10:04:48;;;;;;;0.40;0.40;;;-0.50;99.90;;;;;;5073802;28;20423;-69
2021/12/27 10:07:41;;;;;;;2.60;2.40;;;-0.40;99.90;;;;;;5092003;28;20805;-68
2021/12/27 10:10:31;;;;;;;0.43;0.43;;;-0.30;99.90;;;;;;5093744;28;20419;-68
2021/12/27 10:13:18;;;;;;;0.97;0.97;;;-0.30;99.90;;;;;;5094070;28;20795;-69
2021/12/27 10:16:13;;;;;;;1.23;1.20;;;-0.30;99.90;;;;;;5094604;28;20527;-68
2021/12/27 10:19:03;;;;;;;1.17;1.07;;;-0.30;99.90;;;;;;5094416;28;20469;-69
2021/12/27 10:21:52;;;;;;;1.43;1.43;;;-0.10;99.90;;;;;;5093945;28;20447;-69
2021/12/27 10:24:40;;;;;;;0.40;0.40;;;-0.20;99.90;;;;;;5093598;28;20422;-74
2021/12/27 10:27:33;;;;;;;2.73;2.63;;;-0.20;99.90;;;;;;5093654;28;20841;-70
2021/12/27 10:30:22;;;;;;;0.43;0.43;;;-0.20;99.90;;;;;;5093810;28;20512;-69
2021/12/27 10:33:12;;;;;;;0.80;0.80;;;-0.30;99.90;;;;;;5093877;28;20468;-68
2021/12/27 10:35:59;;;;;;;0.50;0.50;;;-0.20;99.90;;;;;;5093414;28;20620;-70
2021/12/27 10:38:54;;;;;;;3.90;3.80;;;-0.20;99.90;;;;;;5093336;28;20926;-68
2021/12/27 10:41:41;;;;;;;0.50;0.50;;;-0.20;99.90;;;;;;5094174;28;20447;-68
2021/12/27 10:44:29;;;;;;;0.40;0.40;;;-0.20;99.90;;;;;;5093317;28;20419;-70
2021/12/27 10:47:29;;;;;;;3.70;3.53;;;0.00;99.90;;;;;;5093046;28;20946;-68
2021/12/27 10:50:18;;;;;;;4.20;3.80;;;0.10;99.90;;;;;;5099478;28;20446;-70
2021/12/27 10:53:07;;;;;;;0.60;0.60;;;0.00;99.90;;;;;;5110117;28;20435;-69
2021/12/27 10:55:56;;;;;;;0.50;0.50;;;0.00;99.90;;;;;;5109035;28;20462;-69
2021/12/27 10:58:48;;;;;;;0.60;0.60;;;0.00;99.90;;;;;;5108061;28;20435;-69
2021/12/27 11:01:41;;;;;;;2.40;2.30;;;0.00;99.90;;;;;;5092051;28;20460;-69
2021/12/27 11:04:28;;;;;;;1.97;1.57;;;0.20;99.90;;;;;;5074443;28;20427;-69
2021/12/27 11:07:15;;;;;;;0.40;0.40;;;0.30;99.90;;;;;;5073503;28;20431;-71
2021/12/27 11:10:01;;;;;;;2.87;2.60;;;0.50;99.90;;;;;;5072386;28;20431;-68
2021/12/27 11:12:50;;;;;;;0.60;0.60;;;0.30;99.90;;;;;;5072219;28;20842;-68
2021/12/27 11:15:40;;;;;;;1.57;1.37;;;0.40;99.90;;;;;;5073201;28;20815;-70
2021/12/27 11:18:28;;;;;;;0.80;0.70;;;0.40;99.90;;;;;;5072973;28;20423;-68
2021/12/27 11:21:17;;;;;;;0.40;0.40;;;0.60;99.90;;;;;;5072687;28;20498;-68
2021/12/27 11:24:05;;;;;;;10.20;9.53;;;0.80;99.90;;;;;;5073971;28;20454;-68
2021/12/27 11:26:55;;;;;;;0.50;0.50;;;0.80;99.90;;;;;;5073237;28;20493;-68
2021/12/27 11:29:42;;;;;;;0.53;0.53;;;0.70;99.90;;;;;;5072295;28;20428;-68
2021/12/27 11:32:29;;;;;;;0.40;0.40;;;0.70;99.90;;;;;;5074034;28;20436;-69
2021/12/27 11:35:17;;;;;;;2.30;1.33;;;0.80;99.90;;;;;;5072927;28;20466;-69
2021/12/27 11:38:05;;;;;;;0.40;0.40;;;0.80;99.90;;;;;;5072856;28;20427;-68
2021/12/27 11:40:52;;;;;;;1.20;1.20;;;0.80;99.90;;;;;;5073194;28;20505;-69
2021/12/27 11:43:49;;;;;;;0.50;0.50;;;0.90;99.90;;;;;;5072349;28;20810;-69
2021/12/27 11:46:58;;;;;;;0.50;0.50;;;0.90;99.90;;;;;;5073065;28;20421;-69
2021/12/27 11:49:55;;;;;;;0.50;0.50;;;0.80;99.90;;;;;;5071954;28;20951;-68
2021/12/27 11:52:49;;;;;;;0.50;0.50;;;0.90;99.90;;;;;;5072994;28;20471;-68
2021/12/27 11:55:40;;;;;;;4.83;4.43;;;0.90;99.90;;;;;;5072347;28;20470;-68
2021/12/27 11:58:35;;;;;;;0.50;0.50;;;0.90;99.90;;;;;;5075541;28;20929;-68
2021/12/27 12:01:38;;;;;;;0.50;0.50;;;1.00;99.90;;;;;;5076345;28;20470;-69
2021/12/27 12:04:42;;;;;;;0.40;0.40;;;0.90;99.90;;;;;;5074278;28;20416;-68
2021/12/27 12:07:54;;;;;;;3.23;3.13;;;1.00;99.90;;;;;;5074882;28;20620;-68
2021/12/27 12:10:50;;;;;;;4.30;2.60;;;0.90;99.90;;;;;;5073397;28;20928;-68
2021/12/27 12:13:41;;;;;;;0.60;0.60;;;0.90;99.90;;;;;;5074267;28;20797;-69
2021/12/27 12:16:28;;;;;;;0.40;0.40;;;1.00;99.90;;;;;;5073924;28;20466;-68
2021/12/27 12:19:15;;;;;;;0.50;0.50;;;1.10;99.90;;;;;;5074369;28;21007;-68
2021/12/27 12:22:03;;;;;;;0.50;0.50;;;1.10;99.90;;;;;;5074530;28;20451;-68
2021/12/27 12:25:06;;;;;;;4.10;1.57;;;1.30;99.90;;;;;;5074599;28;20480;-68
2021/12/27 12:27:55;;;;;;;0.60;0.60;;;1.30;99.90;;;;;;5074307;28;20919;-68
2021/12/27 12:30:46;;;;;;;1.10;1.10;;;1.30;99.90;;;;;;5074822;28;20431;-68
2021/12/27 12:33:33;;;;;;;0.50;0.50;;;1.20;99.90;;;;;;5074805;28;20427;-72
2021/12/27 12:36:20;;;;;;;0.50;0.50;;;1.10;99.90;;;;;;5075035;28;20530;-67
2021/12/27 12:39:07;;;;;;;0.50;0.50;;;1.10;99.90;;;;;;5074162;28;20416;-68
2021/12/27 12:42:07;;;;;;;2.90;2.70;;;1.10;99.90;;;;;;5074306;28;20489;-68
2021/12/27 12:44:56;;;;;;;0.60;0.60;;;1.00;99.90;;;;;;5074876;28;20504;-68
2021/12/27 12:47:44;;;;;;;0.40;0.40;;;1.10;99.90;;;;;;5074635;28;20423;-68
2021/12/27 12:50:31;;;;;;;0.47;0.47;;;1.10;99.90;;;;;;5075113;28;20436;-68
2021/12/27 12:53:18;;;;;;;1.07;1.07;;;1.10;99.90;;;;;;5074520;28;20457;-69
2021/12/27 12:56:07;;;;;;;0.50;0.50;;;1.10;99.90;;;;;;5073528;28;20492;-68
2021/12/27 12:58:55;;;;;;;0.50;0.50;;;1.10;99.90;;;;;;5074681;28;20482;-69
2021/12/27 13:01:57;;;;;;;0.43;0.43;;;1.00;99.90;;;;;;5085990;28;20470;-68
2021/12/27 13:04:48;;;;;;;0.40;0.40;;;1.00;99.90;;;;;;5095578;28;20426;-68
2021/12/27 13:07:39;;;;;;;0.50;0.50;;;1.00;99.90;;;;;;5095187;28;20958;-68
2021/12/27 13:10:29;;;;;;;0.40;0.40;;;1.10;99.90;;;;;;5093813;28;20506;-68
2021/12/27 13:13:18;;;;;;;0.67;0.67;;;1.00;99.90;;;;;;5094596;28;20423;-69
2021/12/27 13:16:07;;;;;;;1.57;1.47;;;1.00;99.90;;;;;;5094658;28;20465;-68
2021/12/27 13:18:54;;;;;;;0.53;0.53;;;1.10;99.90;;;;;;5094499;28;20839;-67
2021/12/27 13:21:42;;;;;;;1.10;1.10;;;1.10;99.90;;;;;;5094880;28;20450;-68
2021/12/27 13:24:28;;;;;;;0.50;0.50;;;1.20;99.90;;;;;;5095848;28;20475;-68
2021/12/27 13:27:27;;;;;;;1.00;1.00;;;1.20;99.90;;;;;;5094734;28;20943;-68
2021/12/27 13:30:15;;;;;;;0.40;0.40;;;1.30;99.90;;;;;;5094587;28;20572;-68
2021/12/27 13:33:03;;;;;;;0.60;0.60;;;1.30;99.90;;;;;;5095123;28;20459;-67
2021/12/27 13:35:50;;;;;;;0.60;0.60;;;1.20;99.90;;;;;;5094373;28;21039;-68
2021/12/27 13:38:39;;;;;;;0.47;0.47;;;1.30;99.90;;;;;;5094549;28;20419;-67
2021/12/27 13:41:28;;;;;;;0.50;0.50;;;1.30;99.90;;;;;;5094611;28;20443;-68
2021/12/27 13:44:24;;;;;;;0.43;0.43;;;1.20;99.90;;;;;;5094941;28;20430;-69
2021/12/27 13:47:12;;;;;;;0.40;0.40;;;1.20;99.90;;;;;;5094585;28;20448;-68
2021/12/27 13:50:01;;;;;;;0.50;0.50;;;1.40;99.90;;;;;;5093942;28;20419;-68
2021/12/27 13:52:49;;;;;;;1.43;1.37;;;1.20;99.90;;;;;;5094040;28;20819;-69
2021/12/27 13:55:36;;;;;;;0.80;0.80;;;1.20;99.90;;;;;;5094184;28;20436;-69
2021/12/27 13:58:24;;;;;;;0.50;0.50;;;1.10;99.90;;;;;;5094088;28;20443;-68
2021/12/27 14:01:13;;;;;;;0.93;0.93;;;1.10;99.90;;;;;;5094115;28;20457;-69
2021/12/27 14:04:13;;;;;;;0.40;0.40;;;1.00;99.90;;;;;;5093474;28;20423;-68
2021/12/27 14:07:05;;;;;;;0.93;0.93;;;1.00;99.90;;;;;;5093522;28;20942;-68
2021/12/27 14:09:52;;;;;;;0.40;0.40;;;1.00;99.90;;;;;;5092992;28;20502;-68
2021/12/27 14:12:39;;;;;;;2.30;2.20;;;1.00;99.90;;;;;;5093402;28;20447;-69
2021/12/27 14:15:30;;;;;;;1.83;1.73;;;1.00;99.90;;;;;;5093263;28;20429;-68
2021/12/27 14:18:17;;;;;;;0.90;0.90;;;1.10;99.90;;;;;;5093893;28;20423;-70
2021/12/27 14:21:04;;;;;;;0.40;0.40;;;1.00;99.90;;;;;;5093045;28;20438;-68
2021/12/27 14:24:03;;;;;;;0.50;0.50;;;1.00;99.90;;;;;;5093029;28;20419;-69
2021/12/27 14:26:50;;;;;;;1.63;1.63;;;1.00;99.90;;;;;;5092881;28;20418;-68
2021/12/27 14:29:37;;;;;;;0.40;0.40;;;1.00;99.90;;;;;;5093104;28;20479;-68
2021/12/27 14:32:24;;;;;;;4.40;2.70;;;1.00;99.90;;;;;;5092894;28;20977;-68
2021/12/27 14:35:20;;;;;;;0.43;0.43;;;1.00;99.90;;;;;;5095470;28;20422;-68
2021/12/27 14:38:10;;;;;;;0.50;0.50;;;1.00;99.90;;;;;;5093529;28;20423;-68
2021/12/27 14:41:01;;;;;;;0.50;0.50;;;1.00;99.90;;;;;;5092318;28;20832;-68